sensor_id;sensor_type;location;lat;lon;timestamp;pressure;altitude;pressure_sealevel;temperature
66113;BMP280;52893;52.870;5.822;2022-10-16T00:00:03;100802.97;;;14.14
66113;BMP280;52893;52.870;5.822;2022-10-16T00:02:32;100797.47;;;14.14
66113;BMP280;52893;52.870;5.822;2022-10-16T00:04:59;100789.50;;;14.09
66113;BMP280;52893;52.870;5.822;2022-10-16T00:07:27;100808.22;;;14.19
66113;BMP280;52893;52.870;5.822;2022-10-16T00:09:54;100802.03;;;14.22
66113;BMP280;52893;52.870;5.822;2022-10-16T00:12:21;100799.72;;;14.24
66113;BMP280;52893;52.870;5.822;2022-10-16T00:14:48;100791.25;;;14.29
66113;BMP280;52893;52.870;5.822;2022-10-16T00:17:15;100796.00;;;14.32
66113;BMP280;52893;52.870;5.822;2022-10-16T00:19:44;100796.78;;;14.32
66113;BMP280;52893;52.870;5.822;2022-10-16T00:22:29;100797.81;;;14.40
66113;BMP280;52893;52.870;5.822;2022-10-16T00:24:56;100798.69;;;14.44
66113;BMP280;52893;52.870;5.822;2022-10-16T00:27:24;100797.28;;;14.50
66113;BMP280;52893;52.870;5.822;2022-10-16T00:29:51;100797.00;;;14.55
66113;BMP280;52893;52.870;5.822;2022-10-16T00:32:19;100793.56;;;14.58
66113;BMP280;52893;52.870;5.822;2022-10-16T00:34:48;100793.91;;;14.57
66113;BMP280;52893;52.870;5.822;2022-10-16T00:37:15;100797.00;;;14.55
66113;BMP280;52893;52.870;5.822;2022-10-16T00:39:42;100800.91;;;14.54
66113;BMP280;52893;52.870;5.822;2022-10-16T00:42:14;100794.97;;;14.52
66113;BMP280;52893;52.870;5.822;2022-10-16T00:44:45;100787.88;;;14.51
66113;BMP280;52893;52.870;5.822;2022-10-16T00:47:18;100786.31;;;14.50
66113;BMP280;52893;52.870;5.822;2022-10-16T00:49:47;100792.59;;;14.50
66113;BMP280;52893;52.870;5.822;2022-10-16T00:52:16;100781.41;;;14.43
66113;BMP280;52893;52.870;5.822;2022-10-16T00:54:46;100784.16;;;14.43
66113;BMP280;52893;52.870;5.822;2022-10-16T00:57:13;100794.16;;;14.51
66113;BMP280;52893;52.870;5.822;2022-10-16T00:59:41;100791.41;;;14.51
66113;BMP280;52893;52.870;5.822;2022-10-16T01:02:13;100795.34;;;14.50
66113;BMP280;52893;52.870;5.822;2022-10-16T01:04:45;100797.28;;;14.50
66113;BMP280;52893;52.870;5.822;2022-10-16T01:07:20;100791.78;;;14.50
66113;BMP280;52893;52.870;5.822;2022-10-16T01:09:57;100792.38;;;14.43
66113;BMP280;52893;52.870;5.822;2022-10-16T01:12:33;100779.19;;;14.49
66113;BMP280;52893;52.870;5.822;2022-10-16T01:15:09;100777.50;;;14.44
66113;BMP280;52893;52.870;5.822;2022-10-16T01:17:41;100785.41;;;14.46
66113;BMP280;52893;52.870;5.822;2022-10-16T01:20:14;100784.94;;;14.44
66113;BMP280;52893;52.870;5.822;2022-10-16T01:22:57;100789.22;;;14.41
66113;BMP280;52893;52.870;5.822;2022-10-16T01:25:36;100777.25;;;14.34
66113;BMP280;52893;52.870;5.822;2022-10-16T01:28:09;100782.72;;;14.34
66113;BMP280;52893;52.870;5.822;2022-10-16T01:30:39;100788.22;;;14.34
66113;BMP280;52893;52.870;5.822;2022-10-16T01:33:11;100796.78;;;14.32
66113;BMP280;52893;52.870;5.822;2022-10-16T01:35:42;100790.09;;;14.30
66113;BMP280;52893;52.870;5.822;2022-10-16T01:38:15;100787.34;;;14.30
66113;BMP280;52893;52.870;5.822;2022-10-16T01:40:45;100784.16;;;14.28
66113;BMP280;52893;52.870;5.822;2022-10-16T01:43:19;100785.28;;;14.27
66113;BMP280;52893;52.870;5.822;2022-10-16T01:45:48;100780.50;;;14.24
66113;BMP280;52893;52.870;5.822;2022-10-16T01:48:17;100780.13;;;14.25
66113;BMP280;52893;52.870;5.822;2022-10-16T01:50:56;100789.50;;;14.24
66113;BMP280;52893;52.870;5.822;2022-10-16T01:53:25;100787.94;;;14.23
66113;BMP280;52893;52.870;5.822;2022-10-16T01:55:55;100780.75;;;14.19
66113;BMP280;52893;52.870;5.822;2022-10-16T01:58:25;100779.19;;;14.18
66113;BMP280;52893;52.870;5.822;2022-10-16T02:00:54;100773.56;;;14.14
66113;BMP280;52893;52.870;5.822;2022-10-16T02:03:23;100781.13;;;14.17
66113;BMP280;52893;52.870;5.822;2022-10-16T02:05:52;100785.91;;;14.20
66113;BMP280;52893;52.870;5.822;2022-10-16T02:08:20;100796.41;;;14.18
66113;BMP280;52893;52.870;5.822;2022-10-16T02:10:49;100786.25;;;14.19
66113;BMP280;52893;52.870;5.822;2022-10-16T02:13:19;100791.63;;;14.15
66113;BMP280;52893;52.870;5.822;2022-10-16T02:15:50;100792.34;;;14.12
66113;BMP280;52893;52.870;5.822;2022-10-16T02:18:20;100788.38;;;14.10
66113;BMP280;52893;52.870;5.822;2022-10-16T02:20:51;100778.44;;;14.05
66113;BMP280;52893;52.870;5.822;2022-10-16T02:23:23;100790.91;;;14.02
66113;BMP280;52893;52.870;5.822;2022-10-16T02:25:52;100789.84;;;14.07
66113;BMP280;52893;52.870;5.822;2022-10-16T02:28:25;100794.09;;;14.05
66113;BMP280;52893;52.870;5.822;2022-10-16T02:30:57;100791.13;;;14.10
66113;BMP280;52893;52.870;5.822;2022-10-16T02:33:26;100797.75;;;14.09
66113;BMP280;52893;52.870;5.822;2022-10-16T02:35:55;100791.44;;;14.08
66113;BMP280;52893;52.870;5.822;2022-10-16T02:38:24;100797.75;;;14.09
66113;BMP280;52893;52.870;5.822;2022-10-16T02:40:52;100797.75;;;14.09
66113;BMP280;52893;52.870;5.822;2022-10-16T02:43:19;100799.34;;;14.10
66113;BMP280;52893;52.870;5.822;2022-10-16T02:45:46;100793.91;;;14.13
66113;BMP280;52893;52.870;5.822;2022-10-16T02:48:15;100799.16;;;14.18
66113;BMP280;52893;52.870;5.822;2022-10-16T02:50:42;100798.81;;;14.20
66113;BMP280;52893;52.870;5.822;2022-10-16T02:53:09;100795.19;;;14.16
66113;BMP280;52893;52.870;5.822;2022-10-16T02:55:36;100804.31;;;14.20
66113;BMP280;52893;52.870;5.822;2022-10-16T02:58:03;100797.22;;;14.19
66113;BMP280;52893;52.870;5.822;2022-10-16T03:00:30;100806.78;;;14.25
66113;BMP280;52893;52.870;5.822;2022-10-16T03:02:58;100807.72;;;14.29
66113;BMP280;52893;52.870;5.822;2022-10-16T03:05:26;100807.72;;;14.29
66113;BMP280;52893;52.870;5.822;2022-10-16T03:07:53;100787.50;;;14.21
66113;BMP280;52893;52.870;5.822;2022-10-16T03:10:21;100803.91;;;14.33
66113;BMP280;52893;52.870;5.822;2022-10-16T03:12:48;100801.16;;;14.33
66113;BMP280;52893;52.870;5.822;2022-10-16T03:15:15;100811.88;;;14.38
66113;BMP280;52893;52.870;5.822;2022-10-16T03:17:43;100808.00;;;14.39
66113;BMP280;52893;52.870;5.822;2022-10-16T03:20:10;100815.78;;;14.37
66113;BMP280;52893;52.870;5.822;2022-10-16T03:22:38;100818.44;;;14.34
66113;BMP280;52893;52.870;5.822;2022-10-16T03:25:07;100827.75;;;14.29
66113;BMP280;52893;52.870;5.822;2022-10-16T03:27:34;100818.28;;;14.15
66113;BMP280;52893;52.870;5.822;2022-10-16T03:30:01;100835.66;;;14.19
66113;BMP280;52893;52.870;5.822;2022-10-16T03:32:29;100837.28;;;14.20
66113;BMP280;52893;52.870;5.822;2022-10-16T03:34:56;100835.66;;;14.19
66113;BMP280;52893;52.870;5.822;2022-10-16T03:37:24;100840.47;;;14.22
66113;BMP280;52893;52.870;5.822;2022-10-16T03:39:52;100843.91;;;14.19
66113;BMP280;52893;52.870;5.822;2022-10-16T03:42:19;100845.97;;;14.22
66113;BMP280;52893;52.870;5.822;2022-10-16T03:44:46;100835.66;;;14.19
66113;BMP280;52893;52.870;5.822;2022-10-16T03:47:14;100845.59;;;14.23
66113;BMP280;52893;52.870;5.822;2022-10-16T03:49:41;100837.47;;;14.27
66113;BMP280;52893;52.870;5.822;2022-10-16T03:52:09;100850.84;;;14.28
66113;BMP280;52893;52.870;5.822;2022-10-16T03:54:36;100838.25;;;14.27
66113;BMP280;52893;52.870;5.822;2022-10-16T03:57:05;100844.09;;;14.26
66113;BMP280;52893;52.870;5.822;2022-10-16T03:59:32;100842.50;;;14.25
66113;BMP280;52893;52.870;5.822;2022-10-16T04:01:59;100840.47;;;14.22
66113;BMP280;52893;52.870;5.822;2022-10-16T04:04:26;100839.56;;;14.18
66113;BMP280;52893;52.870;5.822;2022-10-16T04:06:53;100848.94;;;14.17
66113;BMP280;52893;52.870;5.822;2022-10-16T04:09:21;100840.75;;;14.05
66113;BMP280;52893;52.870;5.822;2022-10-16T04:11:48;100859.03;;;14.13
66113;BMP280;52893;52.870;5.822;2022-10-16T04:14:17;100867.63;;;14.11
66113;BMP280;52893;52.870;5.822;2022-10-16T04:16:44;100889.78;;;14.18
66113;BMP280;52893;52.870;5.822;2022-10-16T04:19:11;100893.09;;;14.24
66113;BMP280;52893;52.870;5.822;2022-10-16T04:21:39;100884.91;;;14.12
66113;BMP280;52893;52.870;5.822;2022-10-16T04:24:08;100891.88;;;14.09
66113;BMP280;52893;52.870;5.822;2022-10-16T04:26:36;100883.88;;;14.04
66113;BMP280;52893;52.870;5.822;2022-10-16T04:29:03;100881.50;;;14.02
66113;BMP280;52893;52.870;5.822;2022-10-16T04:31:33;100866.97;;;14.02
66113;BMP280;52893;52.870;5.822;2022-10-16T04:34:01;100880.22;;;14.00
66113;BMP280;52893;52.870;5.822;2022-10-16T04:36:28;100886.53;;;14.00
66113;BMP280;52893;52.870;5.822;2022-10-16T04:38:55;100873.59;;;14.01
66113;BMP280;52893;52.870;5.822;2022-10-16T04:41:22;100894.28;;;14.11
66113;BMP280;52893;52.870;5.822;2022-10-16T04:43:49;100892.06;;;14.16
66113;BMP280;52893;52.870;5.822;2022-10-16T04:46:16;100896.06;;;14.19
66113;BMP280;52893;52.870;5.822;2022-10-16T04:48:45;100877.81;;;14.11
66113;BMP280;52893;52.870;5.822;2022-10-16T04:51:12;100900.06;;;14.21
66113;BMP280;52893;52.870;5.822;2022-10-16T04:53:39;100904.06;;;14.24
66113;BMP280;52893;52.870;5.822;2022-10-16T04:56:07;100908.84;;;14.27
66113;BMP280;52893;52.870;5.822;2022-10-16T04:58:34;100914.44;;;14.30
66113;BMP280;52893;52.870;5.822;2022-10-16T05:01:01;100905.16;;;14.35
66113;BMP280;52893;52.870;5.822;2022-10-16T05:03:28;100914.63;;;14.37
66113;BMP280;52893;52.870;5.822;2022-10-16T05:05:56;100911.56;;;14.39
66113;BMP280;52893;52.870;5.822;2022-10-16T05:08:24;100915.16;;;14.43
66113;BMP280;52893;52.870;5.822;2022-10-16T05:10:51;100915.53;;;14.41
66113;BMP280;52893;52.870;5.822;2022-10-16T05:13:18;100912.78;;;14.41
66113;BMP280;52893;52.870;5.822;2022-10-16T05:15:46;100910.81;;;14.42
66113;BMP280;52893;52.870;5.822;2022-10-16T05:18:14;100902.06;;;14.36
66113;BMP280;52893;52.870;5.822;2022-10-16T05:20:41;100916.25;;;14.38
66113;BMP280;52893;52.870;5.822;2022-10-16T05:23:10;100919.31;;;14.37
66113;BMP280;52893;52.870;5.822;2022-10-16T05:25:37;100933.44;;;14.35
66113;BMP280;52893;52.870;5.822;2022-10-16T05:28:04;100890.75;;;14.10
66113;BMP280;52893;52.870;5.822;2022-10-16T05:30:31;100934.22;;;14.36
66113;BMP280;52893;52.870;5.822;2022-10-16T05:32:59;100944.41;;;14.35
66113;BMP280;52893;52.870;5.822;2022-10-16T05:35:26;100942.72;;;14.31
66113;BMP280;52893;52.870;5.822;2022-10-16T05:37:53;100955.06;;;14.25
66113;BMP280;52893;52.870;5.822;2022-10-16T05:40:21;100956.44;;;14.31
66113;BMP280;52893;52.870;5.822;2022-10-16T05:42:48;100959.88;;;14.28
66113;BMP280;52893;52.870;5.822;2022-10-16T05:45:16;100962.63;;;14.28
66113;BMP280;52893;52.870;5.822;2022-10-16T05:47:43;100963.56;;;14.20
66113;BMP280;52893;52.870;5.822;2022-10-16T05:50:10;100965.97;;;14.21
66113;BMP280;52893;52.870;5.822;2022-10-16T05:52:37;100921.88;;;13.90
66113;BMP280;52893;52.870;5.822;2022-10-16T05:55:05;100971.16;;;14.11
66113;BMP280;52893;52.870;5.822;2022-10-16T05:57:33;100979.03;;;14.12
66113;BMP280;52893;52.870;5.822;2022-10-16T06:00:00;100977.84;;;14.13
66113;BMP280;52893;52.870;5.822;2022-10-16T06:02:28;100974.34;;;14.13
66113;BMP280;52893;52.870;5.822;2022-10-16T06:04:55;100981.41;;;14.14
66113;BMP280;52893;52.870;5.822;2022-10-16T06:07:22;100986.91;;;14.14
66113;BMP280;52893;52.870;5.822;2022-10-16T06:09:50;100981.66;;;14.21
66113;BMP280;52893;52.870;5.822;2022-10-16T06:12:17;100987.94;;;14.21
66113;BMP280;52893;52.870;5.822;2022-10-16T06:14:46;100994.69;;;14.24
66113;BMP280;52893;52.870;5.822;2022-10-16T06:17:14;100988.47;;;14.27
66113;BMP280;52893;52.870;5.822;2022-10-16T06:19:41;100992.16;;;14.19
66113;BMP280;52893;52.870;5.822;2022-10-16T06:22:08;100992.69;;;14.24
66113;BMP280;52893;52.870;5.822;2022-10-16T06:24:35;101007.44;;;14.32
66113;BMP280;52893;52.870;5.822;2022-10-16T06:27:03;100995.25;;;14.29
66113;BMP280;52893;52.870;5.822;2022-10-16T06:29:30;101002.53;;;14.37
66113;BMP280;52893;52.870;5.822;2022-10-16T06:31:59;100999.94;;;14.29
66113;BMP280;52893;52.870;5.822;2022-10-16T06:34:26;100998.19;;;14.24
66113;BMP280;52893;52.870;5.822;2022-10-16T06:36:53;101001.91;;;14.16
66113;BMP280;52893;52.870;5.822;2022-10-16T06:39:21;101005.69;;;14.12
66113;BMP280;52893;52.870;5.822;2022-10-16T06:41:48;101011.84;;;14.09
66113;BMP280;52893;52.870;5.822;2022-10-16T06:44:15;101008.56;;;14.03
66113;BMP280;52893;52.870;5.822;2022-10-16T06:46:42;101020.34;;;14.04
66113;BMP280;52893;52.870;5.822;2022-10-16T06:49:11;101021.47;;;14.02
66113;BMP280;52893;52.870;5.822;2022-10-16T06:51:38;101031.53;;;13.98
66113;BMP280;52893;52.870;5.822;2022-10-16T06:54:06;101026.50;;;14.00
66113;BMP280;52893;52.870;5.822;2022-10-16T06:56:34;101037.03;;;13.98
66113;BMP280;52893;52.870;5.822;2022-10-16T06:59:02;101038.16;;;13.97
66113;BMP280;52893;52.870;5.822;2022-10-16T07:01:30;101035.91;;;13.99
66113;BMP280;52893;52.870;5.822;2022-10-16T07:03:58;101050.75;;;13.98
66113;BMP280;52893;52.870;5.822;2022-10-16T07:06:26;101057.59;;;14.05
66113;BMP280;52893;52.870;5.822;2022-10-16T07:08:54;101059.88;;;14.15
66113;BMP280;52893;52.870;5.822;2022-10-16T07:11:22;101043.09;;;14.04
66113;BMP280;52893;52.870;5.822;2022-10-16T07:13:50;101053.91;;;14.25
66113;BMP280;52893;52.870;5.822;2022-10-16T07:16:19;101069.72;;;14.28
66113;BMP280;52893;52.870;5.822;2022-10-16T07:18:47;101070.53;;;14.28
66113;BMP280;52893;52.870;5.822;2022-10-16T07:21:16;101068.81;;;14.36
66113;BMP280;52893;52.870;5.822;2022-10-16T07:23:50;101076.34;;;14.39
66113;BMP280;52893;52.870;5.822;2022-10-16T07:26:17;101081.84;;;14.39
66113;BMP280;52893;52.870;5.822;2022-10-16T07:28:45;101083.53;;;14.43
66113;BMP280;52893;52.870;5.822;2022-10-16T07:31:13;101099.56;;;14.54
66113;BMP280;52893;52.870;5.822;2022-10-16T07:33:41;101097.50;;;14.50
66113;BMP280;52893;52.870;5.822;2022-10-16T07:36:10;101109.72;;;14.65
66113;BMP280;52893;52.870;5.822;2022-10-16T07:38:38;101118.06;;;14.69
66113;BMP280;52893;52.870;5.822;2022-10-16T07:41:09;101121.69;;;14.73
66113;BMP280;52893;52.870;5.822;2022-10-16T07:43:37;101128.47;;;14.75
66113;BMP280;52893;52.870;5.822;2022-10-16T07:46:05;101134.84;;;14.79
66113;BMP280;52893;52.870;5.822;2022-10-16T07:48:33;101142.66;;;14.77
66113;BMP280;52893;52.870;5.822;2022-10-16T07:51:02;101148.84;;;14.74
66113;BMP280;52893;52.870;5.822;2022-10-16T07:53:30;101140.88;;;14.69
66113;BMP280;52893;52.870;5.822;2022-10-16T07:55:59;101134.91;;;14.67
66113;BMP280;52893;52.870;5.822;2022-10-16T07:58:28;101145.09;;;14.67
66113;BMP280;52893;52.870;5.822;2022-10-16T08:00:56;101140.13;;;14.72
66113;BMP280;52893;52.870;5.822;2022-10-16T08:03:23;101153.06;;;14.84
66113;BMP280;52893;52.870;5.822;2022-10-16T08:05:51;101130.25;;;14.83
66113;BMP280;52893;52.870;5.822;2022-10-16T08:08:18;101143.97;;;14.95
66113;BMP280;52893;52.870;5.822;2022-10-16T08:10:46;101149.69;;;15.02
66113;BMP280;52893;52.870;5.822;2022-10-16T08:13:13;101158.72;;;15.15
66113;BMP280;52893;52.870;5.822;2022-10-16T08:15:42;101152.25;;;15.23
66113;BMP280;52893;52.870;5.822;2022-10-16T08:18:11;101172.03;;;15.29
66113;BMP280;52893;52.870;5.822;2022-10-16T08:20:39;101168.56;;;15.44
66113;BMP280;52893;52.870;5.822;2022-10-16T08:23:07;101172.53;;;15.46
66113;BMP280;52893;52.870;5.822;2022-10-16T08:25:35;101173.97;;;15.56
66113;BMP280;52893;52.870;5.822;2022-10-16T08:28:03;101167.78;;;15.59
66113;BMP280;52893;52.870;5.822;2022-10-16T08:30:30;101164.31;;;15.62
66113;BMP280;52893;52.870;5.822;2022-10-16T08:32:59;101172.28;;;15.67
66113;BMP280;52893;52.870;5.822;2022-10-16T08:35:26;101155.16;;;15.58
66113;BMP280;52893;52.870;5.822;2022-10-16T08:37:53;101187.38;;;15.73
66113;BMP280;52893;52.870;5.822;2022-10-16T08:40:24;101187.50;;;15.77
66113;BMP280;52893;52.870;5.822;2022-10-16T08:43:19;101199.94;;;15.86
66113;BMP280;52893;52.870;5.822;2022-10-16T08:46:02;101192.84;;;15.85
66113;BMP280;52893;52.870;5.822;2022-10-16T08:48:37;101212.50;;;15.99
66113;BMP280;52893;52.870;5.822;2022-10-16T08:51:10;101214.63;;;16.06
66113;BMP280;52893;52.870;5.822;2022-10-16T08:53:43;101220.50;;;16.20
66113;BMP280;52893;52.870;5.822;2022-10-16T08:56:11;101235.16;;;16.24
66113;BMP280;52893;52.870;5.822;2022-10-16T08:58:42;101236.75;;;16.25
66113;BMP280;52893;52.870;5.822;2022-10-16T09:01:13;101231.78;;;16.31
66113;BMP280;52893;52.870;5.822;2022-10-16T09:03:52;101238.34;;;16.42
66113;BMP280;52893;52.870;5.822;2022-10-16T09:06:35;101227.31;;;16.42
66113;BMP280;52893;52.870;5.822;2022-10-16T09:09:25;101240.72;;;16.43
66113;BMP280;52893;52.870;5.822;2022-10-16T09:12:00;101255.16;;;16.52
66113;BMP280;52893;52.870;5.822;2022-10-16T09:14:38;101265.19;;;16.45
66113;BMP280;52893;52.870;5.822;2022-10-16T09:17:24;101264.72;;;16.59
66113;BMP280;52893;52.870;5.822;2022-10-16T09:20:04;101275.69;;;16.55
66113;BMP280;52893;52.870;5.822;2022-10-16T09:22:35;101266.25;;;16.56
66113;BMP280;52893;52.870;5.822;2022-10-16T09:25:11;101287.56;;;16.59
66113;BMP280;52893;52.870;5.822;2022-10-16T09:27:38;101280.44;;;16.58
66113;BMP280;52893;52.870;5.822;2022-10-16T09:30:11;101300.13;;;16.72
66113;BMP280;52893;52.870;5.822;2022-10-16T09:32:39;101290.38;;;16.78
66113;BMP280;52893;52.870;5.822;2022-10-16T09:35:14;101302.84;;;16.88
66113;BMP280;52893;52.870;5.822;2022-10-16T09:37:42;101303.28;;;16.90
66113;BMP280;52893;52.870;5.822;2022-10-16T09:40:12;101301.31;;;16.90
66113;BMP280;52893;52.870;5.822;2022-10-16T09:42:40;101309.59;;;16.90
66113;BMP280;52893;52.870;5.822;2022-10-16T09:45:20;101314.75;;;16.92
66113;BMP280;52893;52.870;5.822;2022-10-16T09:47:48;101319.19;;;16.96
66113;BMP280;52893;52.870;5.822;2022-10-16T09:50:24;101306.38;;;16.88
66113;BMP280;52893;52.870;5.822;2022-10-16T09:53:03;101315.81;;;17.03
66113;BMP280;52893;52.870;5.822;2022-10-16T09:55:31;101319.44;;;17.07
66113;BMP280;52893;52.870;5.822;2022-10-16T09:57:58;101324.16;;;17.06
66113;BMP280;52893;52.870;5.822;2022-10-16T10:00:25;101325.84;;;17.11
66113;BMP280;52893;52.870;5.822;2022-10-16T10:02:53;101323.44;;;17.10
66113;BMP280;52893;52.870;5.822;2022-10-16T10:05:24;101329.25;;;17.24
66113;BMP280;52893;52.870;5.822;2022-10-16T10:07:56;101327.59;;;17.19
66113;BMP280;52893;52.870;5.822;2022-10-16T10:10:25;101334.50;;;17.29
66113;BMP280;52893;52.870;5.822;2022-10-16T10:12:53;101339.72;;;17.34
66113;BMP280;52893;52.870;5.822;2022-10-16T10:15:21;101330.59;;;17.30
66113;BMP280;52893;52.870;5.822;2022-10-16T10:17:51;101343.81;;;17.40
66113;BMP280;52893;52.870;5.822;2022-10-16T10:20:25;101348.81;;;17.34
66113;BMP280;52893;52.870;5.822;2022-10-16T10:22:54;101350.13;;;17.40
66113;BMP280;52893;52.870;5.822;2022-10-16T10:25:37;101365.47;;;17.38
66113;BMP280;52893;52.870;5.822;2022-10-16T10:28:17;101363.19;;;17.43
66113;BMP280;52893;52.870;5.822;2022-10-16T10:30:52;101363.88;;;17.37
66113;BMP280;52893;52.870;5.822;2022-10-16T10:33:28;101391.63;;;17.63
66113;BMP280;52893;52.870;5.822;2022-10-16T10:36:08;101365.84;;;17.55
66113;BMP280;52893;52.870;5.822;2022-10-16T10:38:44;101382.97;;;17.65
66113;BMP280;52893;52.870;5.822;2022-10-16T10:41:36;101390.91;;;17.66
66113;BMP280;52893;52.870;5.822;2022-10-16T10:44:14;101395.88;;;17.76
66113;BMP280;52893;52.870;5.822;2022-10-16T10:46:49;101396.56;;;17.73
66113;BMP280;52893;52.870;5.822;2022-10-16T10:49:51;101393.81;;;17.73
66113;BMP280;52893;52.870;5.822;2022-10-16T10:52:43;101398.34;;;17.81
66113;BMP280;52893;52.870;5.822;2022-10-16T10:55:20;101406.19;;;17.79
66113;BMP280;52893;52.870;5.822;2022-10-16T10:58:04;101409.75;;;18.41
66113;BMP280;52893;52.870;5.822;2022-10-16T11:00:42;101397.22;;;18.92
66113;BMP280;52893;52.870;5.822;2022-10-16T11:03:23;101409.44;;;19.21
66113;BMP280;52893;52.870;5.822;2022-10-16T11:05:56;101414.22;;;19.47
66113;BMP280;52893;52.870;5.822;2022-10-16T11:08:32;101397.38;;;19.62
66113;BMP280;52893;52.870;5.822;2022-10-16T11:11:03;101414.22;;;19.80
66113;BMP280;52893;52.870;5.822;2022-10-16T11:13:33;101430.69;;;19.99
66113;BMP280;52893;52.870;5.822;2022-10-16T11:16:11;101426.97;;;19.88
66113;BMP280;52893;52.870;5.822;2022-10-16T11:18:46;101429.94;;;20.02
66113;BMP280;52893;52.870;5.822;2022-10-16T11:21:18;101437.75;;;20.33
66113;BMP280;52893;52.870;5.822;2022-10-16T11:23:51;101427.97;;;20.06
66113;BMP280;52893;52.870;5.822;2022-10-16T11:26:23;101442.84;;;19.91
66113;BMP280;52893;52.870;5.822;2022-10-16T11:28:53;101441.75;;;19.66
66113;BMP280;52893;52.870;5.822;2022-10-16T11:31:26;101430.97;;;19.31
66113;BMP280;52893;52.870;5.822;2022-10-16T11:34:01;101432.84;;;18.97
66113;BMP280;52893;52.870;5.822;2022-10-16T11:36:33;101437.72;;;18.81
66113;BMP280;52893;52.870;5.822;2022-10-16T11:39:11;101436.38;;;18.72
66113;BMP280;52893;52.870;5.822;2022-10-16T11:41:45;101447.06;;;18.73
66113;BMP280;52893;52.870;5.822;2022-10-16T11:44:21;101447.38;;;18.68
66113;BMP280;52893;52.870;5.822;2022-10-16T11:46:58;101444.78;;;18.56
66113;BMP280;52893;52.870;5.822;2022-10-16T11:49:31;101452.78;;;18.61
66113;BMP280;52893;52.870;5.822;2022-10-16T11:52:03;101445.50;;;18.53
66113;BMP280;52893;52.870;5.822;2022-10-16T11:54:39;101463.41;;;18.59
66113;BMP280;52893;52.870;5.822;2022-10-16T11:57:13;101470.78;;;18.51
66113;BMP280;52893;52.870;5.822;2022-10-16T11:59:47;101472.47;;;18.37
66113;BMP280;52893;52.870;5.822;2022-10-16T12:02:29;101476.69;;;18.31
66113;BMP280;52893;52.870;5.822;2022-10-16T12:05:07;101481.72;;;18.25
66113;BMP280;52893;52.870;5.822;2022-10-16T12:07:41;101475.31;;;18.21
66113;BMP280;52893;52.870;5.822;2022-10-16T12:10:21;101453.16;;;17.98
66113;BMP280;52893;52.870;5.822;2022-10-16T12:12:48;101465.28;;;18.13
66113;BMP280;52893;52.870;5.822;2022-10-16T12:15:21;101478.19;;;18.25
66113;BMP280;52893;52.870;5.822;2022-10-16T12:17:49;101481.22;;;18.20
66113;BMP280;52893;52.870;5.822;2022-10-16T12:20:27;101486.00;;;18.23
66113;BMP280;52893;52.870;5.822;2022-10-16T12:22:58;101496.34;;;18.26
66113;BMP280;52893;52.870;5.822;2022-10-16T12:25:29;101495.53;;;18.25
66113;BMP280;52893;52.870;5.822;2022-10-16T12:27:59;101494.00;;;18.28
66113;BMP280;52893;52.870;5.822;2022-10-16T12:30:29;101477.56;;;18.16
66113;BMP280;52893;52.870;5.822;2022-10-16T12:32:58;101505.88;;;18.28
66113;BMP280;52893;52.870;5.822;2022-10-16T12:35:30;101509.84;;;18.31
66113;BMP280;52893;52.870;5.822;2022-10-16T12:38:12;101508.63;;;18.28
66113;BMP280;52893;52.870;5.822;2022-10-16T12:40:44;101504.22;;;18.24
66113;BMP280;52893;52.870;5.822;2022-10-16T12:43:25;101490.75;;;18.22
66113;BMP280;52893;52.870;5.822;2022-10-16T12:46:01;101509.59;;;18.36
66113;BMP280;52893;52.870;5.822;2022-10-16T12:48:28;101518.72;;;18.40
66113;BMP280;52893;52.870;5.822;2022-10-16T12:50:56;101512.50;;;18.43
66113;BMP280;52893;52.870;5.822;2022-10-16T12:53:25;101514.97;;;18.48
66113;BMP280;52893;52.870;5.822;2022-10-16T12:56:03;101520.91;;;18.50
66113;BMP280;52893;52.870;5.822;2022-10-16T12:58:48;101527.59;;;18.49
66113;BMP280;52893;52.870;5.822;2022-10-16T13:01:26;101528.13;;;18.54
66113;BMP280;52893;52.870;5.822;2022-10-16T13:04:14;101532.47;;;18.55
66113;BMP280;52893;52.870;5.822;2022-10-16T13:06:48;101530.22;;;18.61
66113;BMP280;52893;52.870;5.822;2022-10-16T13:09:33;101531.31;;;18.56
66113;BMP280;52893;52.870;5.822;2022-10-16T13:12:15;101545.28;;;18.63
66113;BMP280;52893;52.870;5.822;2022-10-16T13:17:56;101541.28;;;18.61
66113;BMP280;52893;52.870;5.822;2022-10-16T13:20:31;101544.41;;;18.59
66113;BMP280;52893;52.870;5.822;2022-10-16T13:23:07;101548.72;;;18.57
66113;BMP280;52893;52.870;5.822;2022-10-16T13:25:46;101552.63;;;18.56
66113;BMP280;52893;52.870;5.822;2022-10-16T13:28:21;101556.63;;;18.58
66113;BMP280;52893;52.870;5.822;2022-10-16T13:30:52;101551.41;;;18.53
66113;BMP280;52893;52.870;5.822;2022-10-16T13:33:23;101563.84;;;18.63
66113;BMP280;52893;52.870;5.822;2022-10-16T13:35:52;101558.72;;;18.65
66113;BMP280;52893;52.870;5.822;2022-10-16T13:38:22;101566.66;;;18.66
66113;BMP280;52893;52.870;5.822;2022-10-16T13:40:51;101564.25;;;18.65
66113;BMP280;52893;52.870;5.822;2022-10-16T13:43:23;101558.72;;;18.65
66113;BMP280;52893;52.870;5.822;2022-10-16T13:45:59;101541.28;;;18.61
66113;BMP280;52893;52.870;5.822;2022-10-16T13:48:28;101567.59;;;18.74
66113;BMP280;52893;52.870;5.822;2022-10-16T13:51:03;101557.19;;;18.67
66113;BMP280;52893;52.870;5.822;2022-10-16T13:53:32;101561.22;;;18.70
66113;BMP280;52893;52.870;5.822;2022-10-16T13:56:02;101564.69;;;18.67
66113;BMP280;52893;52.870;5.822;2022-10-16T13:58:31;101569.13;;;18.72
66113;BMP280;52893;52.870;5.822;2022-10-16T14:01:00;101578.97;;;18.69
66113;BMP280;52893;52.870;5.822;2022-10-16T14:03:28;101582.25;;;18.75
66113;BMP280;52893;52.870;5.822;2022-10-16T14:05:58;101581.09;;;18.76
66113;BMP280;52893;52.870;5.822;2022-10-16T14:08:28;101586.19;;;18.74
66113;BMP280;52893;52.870;5.822;2022-10-16T14:10:58;101593.69;;;18.73
66113;BMP280;52893;52.870;5.822;2022-10-16T14:13:31;101592.00;;;18.68
66113;BMP280;52893;52.870;5.822;2022-10-16T14:16:06;101584.66;;;18.57
66113;BMP280;52893;52.870;5.822;2022-10-16T14:18:34;101597.44;;;18.46